Waterford, WI

5:41 AM CDT on May 25, 2015 (GMT -0500)
Tichigan Lake | | Change Station
CLOSE
Current Station
Personal Weather Station
Location: Waterford, WI
Elevation: 787 ft
Nearby Weather Stations

Elev 787 ft 42.81 °N, 88.22 °W | Updated 19 seconds ago

Fog
Fog
62.2 °F
Feels Like 62.2 °F
N
0.0
Wind Variable Wind from North
Gusts 0.0 mph

Today
High -- | Low -- °F
--% Chance of Precip.
Yesterday
High -- | Low -- °F
Precip. -- in
5:21 AM 8:18 PM
Waxing Crescent, 47% visible
Pressure 29.81 in
Visibility 1.8 miles
Clouds Mostly Cloudy 4000 ft
Mostly Cloudy 5000 ft
Mostly Cloudy 8000 ft
Dew Point 59 °F
Humidity 89%
Rainfall 0.09 in
Snow Depth Not available.
UV 0 out of 12
Pollen 5.60 out of 12
Air Quality Not available.
Flu Activity Sporadic
METAR KBUU 251015Z AUTO 10003KT 1 3/4SM BR BKN040 BKN050 BKN080 15/15 A2981 RMK AO2 T01530152

More Conditions Fewer Conditions

Pressure 29.81 in
Visibility 1.8 miles
Clouds Mostly Cloudy 4000 ft
Mostly Cloudy 5000 ft
Mostly Cloudy 8000 ft
Dew Point 59 °F
Humidity 89%
Rainfall 0.09 in
Snow Depth Not available.
UV 0 out of 12
Pollen 5.60 out of 12
Air Quality Not available.
Flu Activity Sporadic
METAR KBUU 251015Z AUTO 10003KT 1 3/4SM BR BKN040 BKN050 BKN080 15/15 A2981 RMK AO2 T01530152

More Conditions Fewer Conditions

10-Day Weather Forecast

Almanac

Astronomy

May. 25, 2015 Rise Set
Actual Time
Civil Twilight
Nautical Twilight
Astronomical Twilight
Moon
Length of Visible Light
Length of Day
Tomorrow will be .
, % of the Moon is Illuminated

Today's Extremes

State Highs State Lows

Community

WunderPhotos

Upload Photos

1,823,975 photos uploaded!

WunderBlogs® & News

Nearby

Air Quality

  Air Quality AQ Index Pollutant
Not available.

Snow Depth

Station Depth Elevation

Earthquake Activity

City Distance Mag. Time & Date
Minimum magnitude displayed is 2.5.

Coastal Water Temperatures

Place Temperature

Stations

Nearby Weather Stations

Station Location Temp. Windchill Dew Point Humidity Wind Precip. Elev Updated Type